Time;durP1;ratioP1;P1;durP2;ratioP2;P2;SDS_P1;SDS_P2;PMS_P1;PMS_P2;Temp;Humidity;BMP_temperature;BMP_pressure;BME280_temperature;BME280_humidity;BME280_pressure;Samples;Min_cycle;Max_cycle;Signal;HPM_P1;HPM_P2
2022/07/25 00:01:21;;;;;;;6.87;6.10;;;;;;;;;;5092244;28;20456;-72
2022/07/25 00:03:48;;;;;;;8.13;7.00;;;;;;;;;;5091441;28;20459;-71
2022/07/25 00:06:15;;;;;;;6.80;6.10;;;;;;;;;;5104050;28;20560;-71
2022/07/25 00:08:42;;;;;;;5.50;4.97;;;;;;;;;;5091751;28;20894;-72
2022/07/25 00:11:10;;;;;;;8.47;6.83;;;;;;;;;;5091991;28;21003;-72
2022/07/25 00:13:37;;;;;;;8.50;7.00;;;;;;;;;;5091566;28;20953;-71
2022/07/25 00:16:06;;;;;;;7.30;6.57;;;;;;;;;;5091994;28;20449;-73
2022/07/25 00:18:33;;;;;;;7.60;6.23;;;;;;;;;;5091622;28;20859;-71
2022/07/25 00:21:00;;;;;;;7.20;6.50;;;;;;;;;;5092476;28;20456;-72
2022/07/25 00:23:28;;;;;;;7.13;5.93;;;;;;;;;;5093859;28;20460;-71
2022/07/25 00:25:55;;;;;;;7.67;6.40;;;;;;;;;;5094824;28;20449;-72
2022/07/25 00:28:22;;;;;;;7.60;5.70;;;;;;;;;;5101163;28;20499;-73
2022/07/25 00:30:49;;;;;;;8.20;6.13;;;;;;;;;;5105328;28;20521;-72
2022/07/25 00:33:18;;;;;;;7.50;6.80;;;;;;;;;;5110177;28;20443;-71
2022/07/25 00:35:45;;;;;;;8.73;6.80;;;;;;;;;;5111879;28;20449;-71
2022/07/25 00:38:12;;;;;;;6.00;5.40;;;;;;;;;;5109289;28;20477;-71
2022/07/25 00:40:39;;;;;;;7.17;6.47;;;;;;;;;;5108699;28;20547;-72
2022/07/25 00:43:07;;;;;;;6.33;5.63;;;;;;;;;;5107578;28;20464;-72
2022/07/25 00:45:34;;;;;;;11.23;6.40;;;;;;;;;;5102534;28;20927;-71
2022/07/25 00:48:01;;;;;;;7.03;6.27;;;;;;;;;;5099705;28;20532;-72
2022/07/25 00:50:30;;;;;;;8.03;6.60;;;;;;;;;;5093097;28;20575;-72
2022/07/25 00:52:57;;;;;;;7.07;6.37;;;;;;;;;;5091083;28;20444;-72
2022/07/25 00:55:24;;;;;;;6.50;5.83;;;;;;;;;;5091245;28;20571;-72
2022/07/25 00:57:51;;;;;;;7.63;6.83;;;;;;;;;;5091105;28;20467;-72
2022/07/25 01:00:19;;;;;;;7.17;6.47;;;;;;;;;;5091486;28;20451;-72
2022/07/25 01:02:47;;;;;;;7.67;6.50;;;;;;;;;;5090634;28;20999;-72
2022/07/25 01:05:14;;;;;;;7.73;6.80;;;;;;;;;;5094326;28;20455;-73
2022/07/25 01:07:42;;;;;;;8.63;6.80;;;;;;;;;;5098638;28;20444;-72
2022/07/25 01:10:10;;;;;;;9.63;6.43;;;;;;;;;;5090864;28;20477;-72
2022/07/25 01:12:51;;;;;;;7.23;6.53;;;;;;;;;;5090717;28;20451;-73
2022/07/25 01:15:18;;;;;;;7.90;6.60;;;;;;;;;;5090639;28;20441;-72
2022/07/25 01:17:45;;;;;;;7.80;6.57;;;;;;;;;;5090565;28;20444;-72
2022/07/25 01:20:15;;;;;;;9.60;7.93;;;;;;;;;;5091211;28;20822;-72
2022/07/25 01:22:42;;;;;;;8.17;6.30;;;;;;;;;;5090643;28;20441;-72
2022/07/25 01:25:10;;;;;;;8.00;6.73;;;;;;;;;;5090938;28;20532;-72
2022/07/25 01:27:37;;;;;;;6.80;6.00;;;;;;;;;;5090583;28;20452;-72
2022/07/25 01:30:05;;;;;;;7.27;6.57;;;;;;;;;;5094162;28;20483;-73
2022/07/25 01:32:32;;;;;;;8.23;7.43;;;;;;;;;;5095204;28;20540;-72
2022/07/25 01:34:59;;;;;;;7.17;6.10;;;;;;;;;;5096510;28;20471;-72
2022/07/25 01:37:28;;;;;;;7.47;6.70;;;;;;;;;;5096392;28;20894;-71
2022/07/25 01:39:55;;;;;;;9.73;6.20;;;;;;;;;;5094745;28;20551;-72
2022/07/25 01:42:22;;;;;;;8.03;6.23;;;;;;;;;;5095194;28;20532;-72
2022/07/25 01:44:49;;;;;;;7.50;6.70;;;;;;;;;;5094428;28;20614;-72
2022/07/25 01:47:17;;;;;;;7.37;6.67;;;;;;;;;;5094267;28;20445;-72
2022/07/25 01:49:44;;;;;;;7.90;6.50;;;;;;;;;;5094766;28;20512;-72
2022/07/25 01:52:11;;;;;;;8.57;7.07;;;;;;;;;;5094725;28;20445;-73
2022/07/25 01:54:40;;;;;;;7.67;6.23;;;;;;;;;;5094517;28;20476;-74
2022/07/25 01:57:08;;;;;;;8.73;7.20;;;;;;;;;;5094082;28;20444;-72
2022/07/25 01:59:37;;;;;;;6.03;5.27;;;;;;;;;;5094404;28;20479;-73
2022/07/25 02:02:05;;;;;;;8.97;6.27;;;;;;;;;;5094177;28;20455;-75
2022/07/25 02:04:32;;;;;;;7.60;6.33;;;;;;;;;;5094516;28;20926;-74
2022/07/25 02:06:59;;;;;;;7.80;6.87;;;;;;;;;;5106129;28;20472;-75
2022/07/25 02:09:26;;;;;;;9.17;6.57;;;;;;;;;;5094306;28;20543;-74
2022/07/25 02:11:55;;;;;;;6.80;5.50;;;;;;;;;;5080117;28;20543;-74
2022/07/25 02:14:22;;;;;;;8.37;6.30;;;;;;;;;;5094352;28;20531;-73
2022/07/25 02:16:49;;;;;;;6.80;6.20;;;;;;;;;;5093356;28;20445;-73
2022/07/25 02:19:17;;;;;;;6.80;6.10;;;;;;;;;;5094478;28;20441;-73
2022/07/25 02:21:44;;;;;;;7.33;6.60;;;;;;;;;;5094030;28;20947;-74
2022/07/25 02:24:11;;;;;;;8.13;6.57;;;;;;;;;;5094199;28;20444;-74
2022/07/25 02:26:38;;;;;;;8.00;6.10;;;;;;;;;;5093064;28;20908;-75
2022/07/25 02:29:06;;;;;;;6.50;5.90;;;;;;;;;;5094317;28;20470;-74
2022/07/25 02:31:34;;;;;;;7.87;7.13;;;;;;;;;;5093438;28;20512;-73
2022/07/25 02:34:01;;;;;;;7.37;6.30;;;;;;;;;;5094067;28;20480;-74
2022/07/25 02:36:28;;;;;;;9.10;7.17;;;;;;;;;;5097065;28;20445;-75
2022/07/25 02:38:55;;;;;;;7.17;5.97;;;;;;;;;;5093574;28;20466;-74
2022/07/25 02:41:22;;;;;;;8.00;5.50;;;;;;;;;;5093955;28;20934;-75
2022/07/25 02:43:49;;;;;;;8.53;6.47;;;;;;;;;;5093521;28;20491;-73
2022/07/25 02:46:18;;;;;;;6.60;5.70;;;;;;;;;;5093558;28;20447;-73
2022/07/25 02:48:45;;;;;;;6.87;5.93;;;;;;;;;;5093608;28;20531;-73
2022/07/25 02:51:12;;;;;;;7.40;6.07;;;;;;;;;;5093650;28;20490;-72
2022/07/25 02:53:39;;;;;;;6.80;5.77;;;;;;;;;;5093254;28;20448;-72
2022/07/25 02:56:07;;;;;;;7.80;6.13;;;;;;;;;;5093131;28;20440;-72
2022/07/25 02:58:34;;;;;;;7.47;6.03;;;;;;;;;;5093122;28;20516;-72
2022/07/25 03:01:01;;;;;;;7.93;6.37;;;;;;;;;;5093729;28;20449;-72
2022/07/25 03:03:29;;;;;;;7.27;6.00;;;;;;;;;;5093365;28;20562;-72
2022/07/25 03:05:57;;;;;;;8.20;6.73;;;;;;;;;;5101935;28;20448;-73
2022/07/25 03:08:24;;;;;;;7.07;6.37;;;;;;;;;;5094916;27;20963;-74
2022/07/25 03:10:51;;;;;;;7.20;6.17;;;;;;;;;;5093116;28;20480;-74
2022/07/25 03:13:18;;;;;;;7.73;6.33;;;;;;;;;;5093515;28;20456;-73
2022/07/25 03:15:45;;;;;;;7.40;6.03;;;;;;;;;;5092001;28;20455;-73
2022/07/25 03:18:12;;;;;;;8.67;6.57;;;;;;;;;;5093212;28;20455;-72
2022/07/25 03:20:41;;;;;;;7.80;6.50;;;;;;;;;;5092663;28;20532;-73
2022/07/25 03:23:08;;;;;;;6.00;5.50;;;;;;;;;;5093408;28;20449;-73
2022/07/25 03:25:35;;;;;;;7.30;6.00;;;;;;;;;;5092091;28;20456;-72
2022/07/25 03:28:02;;;;;;;8.13;6.10;;;;;;;;;;5093257;28;20448;-72
2022/07/25 03:30:30;;;;;;;8.87;6.23;;;;;;;;;;5093057;28;20484;-72
2022/07/25 03:32:58;;;;;;;6.23;5.60;;;;;;;;;;5092825;28;20940;-73
2022/07/25 03:35:25;;;;;;;8.10;6.70;;;;;;;;;;5095553;28;20475;-71
2022/07/25 03:37:54;;;;;;;6.83;6.13;;;;;;;;;;5092426;28;20920;-73
2022/07/25 03:40:21;;;;;;;6.33;5.37;;;;;;;;;;5092841;28;20441;-73
2022/07/25 03:42:48;;;;;;;6.40;5.80;;;;;;;;;;5092377;28;20537;-73
2022/07/25 03:45:16;;;;;;;7.47;5.63;;;;;;;;;;5092270;28;20499;-72
2022/07/25 03:47:43;;;;;;;7.10;6.07;;;;;;;;;;5092303;28;20452;-72
2022/07/25 03:50:11;;;;;;;7.03;5.70;;;;;;;;;;5092688;28;20445;-72
2022/07/25 03:52:38;;;;;;;7.47;5.93;;;;;;;;;;5091232;28;20453;-72
2022/07/25 03:55:07;;;;;;;7.50;6.80;;;;;;;;;;5092645;28;20456;-72
2022/07/25 03:57:34;;;;;;;6.63;6.03;;;;;;;;;;5096422;28;20998;-71
2022/07/25 04:00:02;;;;;;;6.07;5.30;;;;;;;;;;5098935;28;20476;-73
2022/07/25 04:02:29;;;;;;;7.07;5.80;;;;;;;;;;5097893;28;20449;-72
2022/07/25 04:04:56;;;;;;;6.30;5.40;;;;;;;;;;5095767;28;20483;-72
2022/07/25 04:07:24;;;;;;;6.93;5.70;;;;;;;;;;5104954;28;20453;-71
2022/07/25 04:09:51;;;;;;;8.07;6.50;;;;;;;;;;5092919;28;20480;-71
2022/07/25 04:12:19;;;;;;;6.90;6.10;;;;;;;;;;5092824;28;20500;-71
2022/07/25 04:14:46;;;;;;;7.17;5.60;;;;;;;;;;5091086;28;20472;-70
2022/07/25 04:17:14;;;;;;;6.40;5.10;;;;;;;;;;5092385;28;20452;-70
2022/07/25 04:19:41;;;;;;;8.13;6.00;;;;;;;;;;5091811;28;20440;-71
2022/07/25 04:22:08;;;;;;;6.50;5.53;;;;;;;;;;5092088;28;20484;-72
2022/07/25 04:24:36;;;;;;;7.97;5.87;;;;;;;;;;5091965;28;20445;-70
2022/07/25 04:27:03;;;;;;;6.57;5.43;;;;;;;;;;5092112;28;20494;-70
2022/07/25 04:29:32;;;;;;;5.90;5.30;;;;;;;;;;5092737;28;20528;-71
2022/07/25 04:31:59;;;;;;;7.30;6.13;;;;;;;;;;5092684;28;20496;-71
2022/07/25 04:34:26;;;;;;;7.47;6.10;;;;;;;;;;5099265;28;20515;-72
2022/07/25 04:36:53;;;;;;;9.07;5.27;;;;;;;;;;5101165;28;20478;-71
2022/07/25 04:39:20;;;;;;;7.70;6.17;;;;;;;;;;5107007;28;20480;-71
2022/07/25 04:41:49;;;;;;;6.23;5.63;;;;;;;;;;5106863;28;20456;-68
2022/07/25 04:44:16;;;;;;;7.53;6.30;;;;;;;;;;5106089;28;20506;-69
2022/07/25 04:46:44;;;;;;;8.83;6.33;;;;;;;;;;5106795;28;20441;-70
2022/07/25 04:49:11;;;;;;;6.87;5.67;;;;;;;;;;5105717;28;20451;-72
2022/07/25 04:51:39;;;;;;;6.40;5.80;;;;;;;;;;5103465;28;20487;-71
2022/07/25 04:54:06;;;;;;;6.20;5.57;;;;;;;;;;5095769;28;20617;-71
2022/07/25 04:56:33;;;;;;;5.30;4.90;;;;;;;;;;5090772;28;20444;-69
2022/07/25 04:59:00;;;;;;;8.00;5.80;;;;;;;;;;5090859;28;20540;-69
2022/07/25 05:01:27;;;;;;;6.83;5.67;;;;;;;;;;5091801;28;20475;-70
2022/07/25 05:03:56;;;;;;;6.90;5.50;;;;;;;;;;5090405;28;20453;-71
2022/07/25 05:06:23;;;;;;;8.53;5.90;;;;;;;;;;5090879;28;20961;-70
2022/07/25 05:08:50;;;;;;;7.03;5.60;;;;;;;;;;5090809;28;20449;-70
2022/07/25 05:11:18;;;;;;;7.47;6.77;;;;;;;;;;5090819;28;20477;-70
2022/07/25 05:13:45;;;;;;;10.17;6.23;;;;;;;;;;5094797;28;20448;-75
2022/07/25 05:16:12;;;;;;;6.87;6.17;;;;;;;;;;5093184;28;20448;-71
2022/07/25 05:18:40;;;;;;;6.00;5.40;;;;;;;;;;5090641;28;20469;-72
2022/07/25 05:21:11;;;;;;;7.10;5.87;;;;;;;;;;5090808;28;20642;-70
2022/07/25 05:23:38;;;;;;;7.17;5.67;;;;;;;;;;5086881;28;20449;-70
2022/07/25 05:26:06;;;;;;;7.73;6.10;;;;;;;;;;5089983;28;20460;-68
2022/07/25 05:28:33;;;;;;;8.40;5.63;;;;;;;;;;5090616;28;20512;-67
2022/07/25 05:31:00;;;;;;;6.30;5.70;;;;;;;;;;5090602;28;20489;-70
2022/07/25 05:33:27;;;;;;;7.37;6.50;;;;;;;;;;5089540;28;20801;-71
2022/07/25 05:35:54;;;;;;;6.70;6.00;;;;;;;;;;5089274;28;20961;-71
2022/07/25 05:38:23;;;;;;;8.00;5.50;;;;;;;;;;5090686;28;20498;-70
2022/07/25 05:40:51;;;;;;;7.33;6.10;;;;;;;;;;5090622;28;20460;-71
2022/07/25 05:43:18;;;;;;;6.57;5.80;;;;;;;;;;5081916;28;20971;-74
2022/07/25 05:45:46;;;;;;;8.13;6.07;;;;;;;;;;5090510;28;20437;-74
2022/07/25 05:48:13;;;;;;;8.17;7.27;;;;;;;;;;5091017;28;20770;-74
2022/07/25 05:50:41;;;;;;;7.20;6.00;;;;;;;;;;5090489;28;20449;-74
2022/07/25 05:53:08;;;;;;;6.53;5.17;;;;;;;;;;5090185;28;20459;-74
2022/07/25 05:55:36;;;;;;;7.27;6.30;;;;;;;;;;5089990;28;20851;-73
2022/07/25 05:58:04;;;;;;;7.07;6.43;;;;;;;;;;5091091;28;20481;-74
2022/07/25 06:00:31;;;;;;;6.17;5.57;;;;;;;;;;5090759;28;20959;-74
2022/07/25 06:02:59;;;;;;;6.50;5.90;;;;;;;;;;5090445;28;20474;-73
2022/07/25 06:05:27;;;;;;;5.80;5.30;;;;;;;;;;5096099;28;20976;-74
2022/07/25 06:07:54;;;;;;;7.00;5.93;;;;;;;;;;5096804;28;20543;-74
2022/07/25 06:10:21;;;;;;;6.77;6.07;;;;;;;;;;5090799;28;20467;-74
2022/07/25 06:12:50;;;;;;;6.13;5.43;;;;;;;;;;5089583;28;20499;-74
2022/07/25 06:15:17;;;;;;;9.00;6.10;;;;;;;;;;5092495;28;20441;-74
2022/07/25 06:17:44;;;;;;;5.53;5.03;;;;;;;;;;5094022;28;20802;-74
2022/07/25 06:20:12;;;;;;;6.60;6.00;;;;;;;;;;5094436;28;20922;-74
2022/07/25 06:22:39;;;;;;;6.10;5.23;;;;;;;;;;5093460;28;20456;-74
2022/07/25 06:25:07;;;;;;;6.23;5.73;;;;;;;;;;5094301;28;20446;-73
2022/07/25 06:27:34;;;;;;;7.40;5.50;;;;;;;;;;5093773;28;20999;-74
2022/07/25 06:30:03;;;;;;;9.27;6.33;;;;;;;;;;5094655;28;20455;-74
2022/07/25 06:32:30;;;;;;;5.80;5.30;;;;;;;;;;5093771;28;20492;-74
2022/07/25 06:34:58;;;;;;;7.77;5.93;;;;;;;;;;5094894;28;20476;-75
2022/07/25 06:37:25;;;;;;;5.83;5.23;;;;;;;;;;5095465;28;20480;-74
2022/07/25 06:39:52;;;;;;;6.63;5.77;;;;;;;;;;5093748;28;20809;-74
2022/07/25 06:42:19;;;;;;;6.17;5.67;;;;;;;;;;5093593;28;20456;-74
2022/07/25 06:44:46;;;;;;;6.03;5.43;;;;;;;;;;5093638;28;20456;-75
2022/07/25 06:47:15;;;;;;;5.43;5.00;;;;;;;;;;5093777;28;20456;-74
2022/07/25 06:49:42;;;;;;;5.00;4.60;;;;;;;;;;5093589;28;20449;-75
2022/07/25 06:52:09;;;;;;;6.43;5.83;;;;;;;;;;5093181;28;20499;-73
2022/07/25 06:54:36;;;;;;;5.77;5.20;;;;;;;;;;5093430;28;20954;-74
2022/07/25 06:57:04;;;;;;;6.47;4.80;;;;;;;;;;5093516;28;20461;-74
2022/07/25 06:59:32;;;;;;;6.37;5.63;;;;;;;;;;5094046;28;20445;-74
2022/07/25 07:01:59;;;;;;;5.67;5.23;;;;;;;;;;5093228;28;20484;-74
2022/07/25 07:04:27;;;;;;;5.87;5.30;;;;;;;;;;5093423;28;20462;-75
2022/07/25 07:06:54;;;;;;;6.77;6.17;;;;;;;;;;5103810;28;20445;-74
2022/07/25 07:09:21;;;;;;;5.73;5.23;;;;;;;;;;5093520;28;20451;-74
2022/07/25 07:11:49;;;;;;;7.13;6.53;;;;;;;;;;5092765;28;20834;-74
2022/07/25 07:14:16;;;;;;;5.63;5.13;;;;;;;;;;5093590;28;20456;-74
2022/07/25 07:16:43;;;;;;;6.40;5.80;;;;;;;;;;5092891;28;20448;-74
2022/07/25 07:19:10;;;;;;;6.00;5.40;;;;;;;;;;5093414;28;20445;-74
2022/07/25 07:21:39;;;;;;;6.23;5.43;;;;;;;;;;5092970;28;20445;-75
2022/07/25 07:24:06;;;;;;;5.90;5.30;;;;;;;;;;5093099;28;20476;-74
2022/07/25 07:26:34;;;;;;;5.40;4.90;;;;;;;;;;5091714;28;20492;-74
2022/07/25 07:29:02;;;;;;;6.20;5.40;;;;;;;;;;5093672;28;20531;-74
2022/07/25 07:31:29;;;;;;;6.50;5.53;;;;;;;;;;5093249;28;20484;-74
2022/07/25 07:33:58;;;;;;;6.17;5.57;;;;;;;;;;5092570;28;20477;-74
2022/07/25 07:36:25;;;;;;;6.67;6.07;;;;;;;;;;5108098;28;20448;-74
2022/07/25 07:38:53;;;;;;;6.87;6.17;;;;;;;;;;5109054;28;20459;-75
2022/07/25 07:41:20;;;;;;;7.03;6.33;;;;;;;;;;5107397;28;20501;-74
2022/07/25 07:43:48;;;;;;;6.93;6.23;;;;;;;;;;5095430;28;20978;-74
2022/07/25 07:46:15;;;;;;;6.00;5.33;;;;;;;;;;5094253;28;20950;-74
2022/07/25 07:48:42;;;;;;;6.13;5.53;;;;;;;;;;5092879;28;20456;-74
2022/07/25 07:51:09;;;;;;;7.33;6.63;;;;;;;;;;5093465;28;20851;-74
2022/07/25 07:56:23;;;;;;;6.83;6.17;;;;;;;;;;5093632;28;20795;-74
2022/07/25 07:58:50;;;;;;;6.63;6.10;;;;;;;;;;5073507;28;20444;-74
2022/07/25 08:01:17;;;;;;;6.60;6.00;;;;;;;;;;5092492;28;20455;-74
2022/07/25 08:03:44;;;;;;;6.70;6.10;;;;;;;;;;5091576;28;20471;-75
2022/07/25 08:06:11;;;;;;;7.07;6.47;;;;;;;;;;5092824;28;20540;-75
2022/07/25 08:08:38;;;;;;;6.90;6.20;;;;;;;;;;5078784;28;20535;-75
2022/07/25 08:11:06;;;;;;;7.43;6.83;;;;;;;;;;5093031;28;20502;-75
2022/07/25 08:13:36;;;;;;;6.50;6.00;;;;;;;;;;5078239;28;20963;-70
2022/07/25 08:16:04;;;;;;;7.67;6.97;;;;;;;;;;5092270;28;21012;-74
2022/07/25 08:18:32;;;;;;;6.80;6.17;;;;;;;;;;5092862;28;20819;-75
2022/07/25 08:21:01;;;;;;;7.13;6.53;;;;;;;;;;5092269;28;20880;-74
2022/07/25 08:23:30;;;;;;;6.10;5.50;;;;;;;;;;5092185;28;20807;-75
2022/07/25 08:25:58;;;;;;;6.93;6.23;;;;;;;;;;5091483;28;20478;-74
2022/07/25 08:28:25;;;;;;;6.70;6.20;;;;;;;;;;5091905;28;20452;-75
2022/07/25 08:30:53;;;;;;;6.80;6.20;;;;;;;;;;5091440;28;20448;-74
2022/07/25 08:33:20;;;;;;;6.70;6.10;;;;;;;;;;5091535;28;21013;-75
2022/07/25 08:35:48;;;;;;;7.73;6.97;;;;;;;;;;5096966;28;20492;-75
2022/07/25 08:38:16;;;;;;;7.00;6.40;;;;;;;;;;5095138;28;20444;-74
2022/07/25 08:40:43;;;;;;;6.70;6.00;;;;;;;;;;5096210;28;20851;-75
2022/07/25 08:43:12;;;;;;;5.67;5.17;;;;;;;;;;5097229;28;20452;-75
2022/07/25 08:45:41;;;;;;;6.43;5.83;;;;;;;;;;5092319;28;20445;-75
2022/07/25 08:48:10;;;;;;;6.23;5.57;;;;;;;;;;5092269;28;20868;-72
2022/07/25 08:50:37;;;;;;;6.27;5.77;;;;;;;;;;5091376;28;20448;-74
2022/07/25 08:53:04;;;;;;;5.80;4.90;;;;;;;;;;5091308;28;20578;-74
2022/07/25 08:55:32;;;;;;;6.67;6.07;;;;;;;;;;5091424;28;20506;-74
2022/07/25 08:57:59;;;;;;;6.40;5.80;;;;;;;;;;5091600;28;20479;-74
2022/07/25 09:00:27;;;;;;;6.20;5.60;;;;;;;;;;5091703;28;20452;-74
2022/07/25 09:02:55;;;;;;;5.53;5.03;;;;;;;;;;5090374;28;20812;-74
2022/07/25 09:05:24;;;;;;;6.30;5.70;;;;;;;;;;5096325;28;20558;-74
2022/07/25 09:07:52;;;;;;;6.20;5.60;;;;;;;;;;5097569;28;20527;-73
2022/07/25 09:10:20;;;;;;;6.33;5.50;;;;;;;;;;5091461;28;20569;-72
2022/07/25 09:12:53;;;;;;;6.43;5.60;;;;;;;;;;5090186;28;21070;-73
2022/07/25 09:15:24;;;;;;;6.97;6.37;;;;;;;;;;5091413;28;20516;-73
2022/07/25 09:17:51;;;;;;;6.40;5.80;;;;;;;;;;5090372;28;20531;-73
2022/07/25 09:20:20;;;;;;;5.87;5.30;;;;;;;;;;5091199;28;20462;-73
2022/07/25 09:22:48;;;;;;;6.20;5.60;;;;;;;;;;5090116;28;20931;-73
2022/07/25 09:25:26;;;;;;;6.27;5.70;;;;;;;;;;5091167;28;20451;-72
2022/07/25 09:27:53;;;;;;;6.97;6.23;;;;;;;;;;5090447;28;20298;-73
2022/07/25 09:30:20;;;;;;;6.40;5.80;;;;;;;;;;5091280;28;20285;-73
2022/07/25 09:32:47;;;;;;;6.43;5.83;;;;;;;;;;5090023;28;20892;-73
2022/07/25 09:35:14;;;;;;;5.90;5.30;;;;;;;;;;5093856;28;20237;-73
2022/07/25 09:37:42;;;;;;;6.60;6.10;;;;;;;;;;5090664;28;20191;-74
2022/07/25 09:40:15;;;;;;;6.50;5.90;;;;;;;;;;5091034;28;20549;-74
2022/07/25 09:42:44;;;;;;;6.47;5.73;;;;;;;;;;5090480;28;20243;-73
2022/07/25 09:45:12;;;;;;;6.63;6.03;;;;;;;;;;5091026;28;20202;-74
2022/07/25 09:47:50;;;;;;;6.13;5.63;;;;;;;;;;5090599;28;20205;-73
2022/07/25 09:50:18;;;;;;;5.83;5.33;;;;;;;;;;5093411;28;20194;-73
2022/07/25 09:52:45;;;;;;;6.60;6.00;;;;;;;;;;5094312;28;20222;-73
2022/07/25 09:55:15;;;;;;;7.53;6.10;;;;;;;;;;5095295;28;20290;-74
2022/07/25 09:57:43;;;;;;;7.40;6.47;;;;;;;;;;5094837;28;20210;-73
2022/07/25 10:00:11;;;;;;;6.73;6.13;;;;;;;;;;5094979;28;20255;-74
2022/07/25 10:02:41;;;;;;;6.78;6.13;;;;;;;;;;5093813;28;20209;-73
2022/07/25 10:05:12;;;;;;;6.55;5.95;;;;;;;;;;5097609;28;20587;-74
2022/07/25 10:07:40;;;;;;;6.35;5.85;;;;;;;;;;5102611;28;20195;-73
2022/07/25 10:10:08;;;;;;;7.03;5.82;;;;;;;;;;5094676;28;20220;-73
2022/07/25 10:12:37;;;;;;;5.93;5.43;;;;;;;;;;5093664;28;20615;-74
2022/07/25 10:15:08;;;;;;;6.85;6.25;;;;;;;;;;5094584;28;20198;-73
2022/07/25 10:17:36;;;;;;;6.82;6.22;;;;;;;;;;5093891;28;20203;-73
2022/07/25 10:20:05;;;;;;;6.32;5.68;;;;;;;;;;5094349;28;20208;-73
2022/07/25 10:22:39;;;;;;;11.38;6.35;;;;;;;;;;5094003;28;20197;-69
2022/07/25 10:25:13;;;;;;;6.03;5.53;;;;;;;;;;5094235;28;20230;-73
2022/07/25 10:27:47;;;;;;;7.40;6.70;;;;;;;;;;5093861;28;20204;-73
2022/07/25 10:30:20;;;;;;;6.88;6.25;;;;;;;;;;5094582;28;20204;-74
2022/07/25 10:32:50;;;;;;;6.68;5.88;;;;;;;;;;5092990;28;20262;-73
2022/07/25 10:35:17;;;;;;;6.00;5.40;;;;;;;;;;5097641;28;20229;-73
2022/07/25 10:37:46;;;;;;;6.20;5.75;;;;;;;;;;5093570;28;20197;-74
2022/07/25 10:40:25;;;;;;;6.63;5.93;;;;;;;;;;5094214;28;20346;-74
2022/07/25 10:42:56;;;;;;;6.88;6.28;;;;;;;;;;5093975;28;20209;-75
2022/07/25 10:45:26;;;;;;;8.13;5.70;;;;;;;;;;5094245;28;20582;-74
2022/07/25 10:47:55;;;;;;;6.38;5.78;;;;;;;;;;5093761;28;20217;-74
2022/07/25 10:50:23;;;;;;;7.40;6.70;;;;;;;;;;5094239;28;20208;-74
2022/07/25 10:52:58;;;;;;;5.05;4.63;;;;;;;;;;5092837;28;20309;-74
2022/07/25 10:55:25;;;;;;;6.43;5.82;;;;;;;;;;5094276;28;20244;-74
2022/07/25 10:58:03;;;;;;;5.90;5.30;;;;;;;;;;5093423;28;20662;-74
2022/07/25 11:00:30;;;;;;;6.72;6.13;;;;;;;;;;5093883;28;20197;-74
2022/07/25 11:02:57;;;;;;;6.65;6.10;;;;;;;;;;5092651;28;20209;-73
2022/07/25 11:05:24;;;;;;;6.95;6.25;;;;;;;;;;5093568;28;20257;-74
2022/07/25 11:07:52;;;;;;;6.03;5.53;;;;;;;;;;5092943;28;20201;-74
2022/07/25 11:10:25;;;;;;;6.00;5.60;;;;;;;;;;5104100;28;20202;-74
2022/07/25 11:12:53;;;;;;;4.90;4.50;;;;;;;;;;5108687;28;20562;-74
2022/07/25 11:15:23;;;;;;;6.25;5.65;;;;;;;;;;5110562;28;20229;-74
2022/07/25 11:17:51;;;;;;;5.88;5.38;;;;;;;;;;5102926;28;20488;-75
2022/07/25 11:20:19;;;;;;;5.95;5.45;;;;;;;;;;5096190;28;20614;-74
2022/07/25 11:22:52;;;;;;;6.05;5.55;;;;;;;;;;5093560;28;20198;-74
2022/07/25 11:25:21;;;;;;;5.75;5.25;;;;;;;;;;5094015;28;20201;-74
2022/07/25 11:27:50;;;;;;;5.97;5.25;;;;;;;;;;5092950;28;20217;-74
2022/07/25 11:30:18;;;;;;;6.03;5.40;;;;;;;;;;5093742;28;20200;-74
2022/07/25 11:32:48;;;;;;;6.22;5.70;;;;;;;;;;5092519;28;20240;-73
2022/07/25 11:35:16;;;;;;;6.13;5.53;;;;;;;;;;5097013;28;20252;-73
2022/07/25 11:37:47;;;;;;;5.57;5.10;;;;;;;;;;5092886;28;20193;-75
2022/07/25 11:40:15;;;;;;;5.43;5.03;;;;;;;;;;5093597;28;20194;-74
2022/07/25 11:42:43;;;;;;;5.45;4.95;;;;;;;;;;5092140;28;20198;-74
2022/07/25 11:45:17;;;;;;;5.72;5.22;;;;;;;;;;5093124;28;20213;-74
2022/07/25 11:47:44;;;;;;;4.43;4.07;;;;;;;;;;5092516;28;20198;-74
2022/07/25 11:50:14;;;;;;;5.40;4.90;;;;;;;;;;5093007;28;20565;-74
2022/07/25 11:52:43;;;;;;;5.32;4.93;;;;;;;;;;5091901;28;20212;-74
2022/07/25 11:55:12;;;;;;;6.07;5.57;;;;;;;;;;5092948;28;20202;-74
2022/07/25 11:57:40;;;;;;;5.65;5.07;;;;;;;;;;5092153;28;20198;-73
2022/07/25 12:00:11;;;;;;;5.05;4.63;;;40.20;1.00;;;;;;5092709;28;20210;-73
2022/07/25 12:02:38;;;;;;;4.00;3.63;;;36.70;1.00;;;;;;5091371;28;20293;-74
2022/07/25 12:05:08;;;;;;;3.42;3.13;;;36.20;1.00;;;;;;5094906;28;20886;-73
2022/07/25 12:07:43;;;;;;;3.28;2.97;;;36.10;1.00;;;;;;5101466;28;20198;-73
2022/07/25 12:10:12;;;;;;;3.65;3.38;;;35.80;1.00;;;;;;5092688;28;20258;-73
2022/07/25 12:12:43;;;;;;;3.30;3.00;;;35.80;1.00;;;;;;5090798;28;20220;-73
2022/07/25 12:15:12;;;;;;;3.72;3.42;;;35.60;1.00;;;;;;5092209;28;20198;-73
2022/07/25 12:17:39;;;;;;;3.83;3.47;;;35.50;1.00;;;;;;5091693;28;20267;-71
2022/07/25 12:20:13;;;;;;;3.50;3.20;;;36.00;1.00;;;;;;5092340;28;20201;-73
2022/07/25 12:22:41;;;;;;;4.20;3.80;;;36.00;1.00;;;;;;5091714;28;20285;-74
2022/07/25 12:25:09;;;;;;;3.90;3.50;;;35.90;1.00;;;;;;5091959;28;20566;-73
2022/07/25 12:27:36;;;;;;;4.38;3.92;;;35.60;1.00;;;;;;5091611;28;20194;-74
2022/07/25 12:30:03;;;;;;;4.68;4.20;;;35.70;1.00;;;;;;5092133;28;20202;-73
2022/07/25 12:32:30;;;;;;;4.82;4.10;;;35.50;1.00;;;;;;5091187;28;20209;-74
2022/07/25 12:34:57;;;;;;;4.78;4.38;;;35.50;1.00;;;;;;5092937;28;20284;-74
2022/07/25 12:37:25;;;;;;;4.60;4.20;;;35.70;1.00;;;;;;5093579;28;20229;-74
2022/07/25 12:39:53;;;;;;;5.35;4.85;;;35.60;1.00;;;;;;5091660;28;20624;-74
2022/07/25 12:42:20;;;;;;;4.78;4.40;;;35.40;1.00;;;;;;5091096;28;20243;-74
2022/07/25 12:44:47;;;;;;;4.40;4.00;;;35.10;1.00;;;;;;5091629;28;20289;-75
2022/07/25 12:47:14;;;;;;;4.90;4.38;;;;;;;;;;5092321;28;20224;-74
2022/07/25 12:49:42;;;;;;;4.85;3.95;;;;;;;;;;5095893;28;20258;-73
2022/07/25 12:52:09;;;;;;;5.30;4.90;;;;;;;;;;5096352;28;20309;-75
2022/07/25 12:54:36;;;;;;;5.45;4.95;;;;;;;;;;5095601;28;20650;-74
2022/07/25 12:57:04;;;;;;;5.57;5.07;;;;;;;;;;5092285;28;20225;-73
2022/07/25 12:59:32;;;;;;;5.13;4.63;;;;;;;;;;5092011;28;20199;-74
2022/07/25 13:01:59;;;;;;;5.28;4.78;;;;;;;;;;5090984;28;20716;-74
2022/07/25 13:04:26;;;;;;;5.35;4.85;;;;;;;;;;5091928;28;20607;-74
2022/07/25 13:06:54;;;;;;;5.93;5.32;;;35.10;1.00;;;;;;5103294;28;20252;-74
2022/07/25 13:09:22;;;;;;;5.07;4.68;;;34.60;1.00;;;;;;5091189;28;20198;-74
2022/07/25 13:11:48;;;;;;;5.68;5.28;;;34.70;1.00;;;;;;5090284;28;20206;-74
2022/07/25 13:14:17;;;;;;;4.72;4.20;;;35.00;1.00;;;;;;5090829;28;20715;-73
2022/07/25 13:16:44;;;;;;;4.88;4.47;;;35.30;1.00;;;;;;5090718;28;20205;-74
2022/07/25 13:19:12;;;;;;;5.50;5.00;;;35.50;1.00;;;;;;5091362;28;20198;-74
2022/07/25 13:21:39;;;;;;;4.70;4.40;;;35.70;1.00;;;;;;5090188;28;20599;-74
2022/07/25 13:24:07;;;;;;;4.80;4.40;;;;;;;;;;5090887;28;20210;-74
2022/07/25 13:26:34;;;;;;;4.60;3.85;;;;;;;;;;5090574;28;20289;-74
2022/07/25 13:29:02;;;;;;;3.70;3.40;;;;;;;;;;5091400;28;20205;-75
2022/07/25 13:31:30;;;;;;;4.55;4.15;;;;;;;;;;5090547;28;20198;-74
2022/07/25 13:33:57;;;;;;;4.65;4.25;;;;;;;;;;5090264;28;20248;-74
2022/07/25 13:36:24;;;;;;;4.45;4.15;;;35.80;1.00;;;;;;5094054;28;20506;-74
2022/07/25 13:38:51;;;;;;;4.80;4.40;;;35.80;1.00;;;;;;5090482;28;20198;-74
2022/07/25 13:41:18;;;;;;;4.90;4.47;;;35.60;1.00;;;;;;5090271;28;20204;-74
2022/07/25 13:43:45;;;;;;;4.82;4.43;;;35.60;1.00;;;;;;5090476;28;20259;-73
2022/07/25 13:46:12;;;;;;;5.25;4.75;;;35.80;1.00;;;;;;5091186;28;20316;-73
2022/07/25 13:48:40;;;;;;;4.65;4.20;;;36.00;1.00;;;;;;5090514;28;20194;-74
2022/07/25 13:51:07;;;;;;;5.15;4.75;;;36.20;1.00;;;;;;5090885;28;20647;-74
2022/07/25 13:53:34;;;;;;;4.90;4.50;;;35.90;1.00;;;;;;5090081;28;20214;-73
2022/07/25 13:56:00;;;;;;;5.68;4.40;;;35.50;1.00;;;;;;5090809;28;20209;-74
2022/07/25 13:58:27;;;;;;;5.57;5.18;;;35.50;1.00;;;;;;5091189;28;20200;-74
2022/07/25 14:00:54;;;;;;;5.82;5.15;;;35.10;1.00;;;;;;5090092;28;20657;-73
2022/07/25 14:03:22;;;;;;;5.25;4.75;;;35.10;1.00;;;;;;5090114;28;20636;-73
2022/07/25 14:05:50;;;;;;;4.95;4.45;;;34.80;1.00;;;;;;5098904;28;20193;-74
2022/07/25 14:08:17;;;;;;;4.30;4.00;;;34.80;1.00;;;;;;5094194;28;20202;-74
2022/07/25 14:10:44;;;;;;;5.97;5.47;;;34.40;1.00;;;;;;5090295;28;20198;-74
2022/07/25 14:13:11;;;;;;;5.57;4.80;;;34.70;1.00;;;;;;5090264;28;20202;-74
2022/07/25 14:15:38;;;;;;;6.43;5.93;;;34.70;1.00;;;;;;5090006;28;20226;-74
2022/07/25 14:18:05;;;;;;;4.75;4.35;;;34.60;1.00;;;;;;5090767;28;20293;-74
2022/07/25 14:20:32;;;;;;;5.50;5.00;;;34.70;1.00;;;;;;5090552;28;20214;-75
2022/07/25 14:23:01;;;;;;;5.75;5.10;;;34.80;1.00;;;;;;5090127;28;20205;-75
2022/07/25 14:25:28;;;;;;;5.57;5.07;;;35.10;1.00;;;;;;5090372;28;20229;-74
2022/07/25 14:27:54;;;;;;;5.68;5.10;;;35.60;1.00;;;;;;5090156;28;20229;-75
2022/07/25 14:30:21;;;;;;;5.63;5.13;;;35.70;1.00;;;;;;5090486;28;20277;-75
2022/07/25 14:32:48;;;;;;;5.93;5.47;;;35.40;1.00;;;;;;5089618;28;20208;-74